sensor_id;sensor_type;location;lat;lon;timestamp;temperature;humidity
66825;DHT22;53726;54.322;10.134;2023-11-22T00:01:20;20.70;69.80
66825;DHT22;53726;54.322;10.134;2023-11-22T00:03:45;20.70;70.10
66825;DHT22;53726;54.322;10.134;2023-11-22T00:06:13;20.70;70.10
66825;DHT22;53726;54.322;10.134;2023-11-22T00:08:40;20.70;69.90
66825;DHT22;53726;54.322;10.134;2023-11-22T00:11:06;20.70;69.90
66825;DHT22;53726;54.322;10.134;2023-11-22T00:13:35;20.70;69.90
66825;DHT22;53726;54.322;10.134;2023-11-22T00:16:00;20.70;69.90
66825;DHT22;53726;54.322;10.134;2023-11-22T00:18:27;20.70;69.80
66825;DHT22;53726;54.322;10.134;2023-11-22T00:20:53;20.60;69.70
66825;DHT22;53726;54.322;10.134;2023-11-22T00:23:22;20.70;69.80
66825;DHT22;53726;54.322;10.134;2023-11-22T00:25:53;20.70;69.90
66825;DHT22;53726;54.322;10.134;2023-11-22T00:28:20;20.70;69.90
66825;DHT22;53726;54.322;10.134;2023-11-22T00:30:46;20.70;69.80
66825;DHT22;53726;54.322;10.134;2023-11-22T00:33:14;20.70;70.00
66825;DHT22;53726;54.322;10.134;2023-11-22T00:35:41;20.70;69.90
66825;DHT22;53726;54.322;10.134;2023-11-22T00:38:09;20.70;69.90
66825;DHT22;53726;54.322;10.134;2023-11-22T00:40:36;20.70;69.90
66825;DHT22;53726;54.322;10.134;2023-11-22T00:43:01;20.70;69.90
66825;DHT22;53726;54.322;10.134;2023-11-22T00:45:28;20.70;69.90
66825;DHT22;53726;54.322;10.134;2023-11-22T00:47:56;20.70;69.90
66825;DHT22;53726;54.322;10.134;2023-11-22T00:50:23;20.70;69.90
66825;DHT22;53726;54.322;10.134;2023-11-22T00:52:50;20.70;70.00
66825;DHT22;53726;54.322;10.134;2023-11-22T00:55:18;20.70;70.00
66825;DHT22;53726;54.322;10.134;2023-11-22T00:57:44;20.70;70.00
66825;DHT22;53726;54.322;10.134;2023-11-22T01:00:11;20.70;70.00
66825;DHT22;53726;54.322;10.134;2023-11-22T01:02:40;20.70;70.00
66825;DHT22;53726;54.322;10.134;2023-11-22T01:05:08;20.70;70.10
66825;DHT22;53726;54.322;10.134;2023-11-22T01:07:43;20.70;70.00
66825;DHT22;53726;54.322;10.134;2023-11-22T01:10:11;20.70;70.20
66825;DHT22;53726;54.322;10.134;2023-11-22T01:12:38;20.70;70.20
66825;DHT22;53726;54.322;10.134;2023-11-22T01:15:12;20.70;70.10
66825;DHT22;53726;54.322;10.134;2023-11-22T01:17:39;20.70;70.20
66825;DHT22;53726;54.322;10.134;2023-11-22T01:20:07;20.70;70.10
66825;DHT22;53726;54.322;10.134;2023-11-22T01:22:36;20.70;70.20
66825;DHT22;53726;54.322;10.134;2023-11-22T01:25:04;20.70;70.20
66825;DHT22;53726;54.322;10.134;2023-11-22T01:27:31;20.80;70.20
66825;DHT22;53726;54.322;10.134;2023-11-22T01:29:57;20.70;70.20
66825;DHT22;53726;54.322;10.134;2023-11-22T01:32:22;20.70;70.20
66825;DHT22;53726;54.322;10.134;2023-11-22T01:34:49;20.70;70.20
66825;DHT22;53726;54.322;10.134;2023-11-22T01:37:14;20.80;70.30
66825;DHT22;53726;54.322;10.134;2023-11-22T01:39:41;20.70;70.30
66825;DHT22;53726;54.322;10.134;2023-11-22T01:42:08;20.80;70.30
66825;DHT22;53726;54.322;10.134;2023-11-22T01:44:36;20.80;70.20
66825;DHT22;53726;54.322;10.134;2023-11-22T01:47:02;20.80;70.20
66825;DHT22;53726;54.322;10.134;2023-11-22T01:49:29;20.80;70.30
66825;DHT22;53726;54.322;10.134;2023-11-22T01:52:03;20.80;70.20
66825;DHT22;53726;54.322;10.134;2023-11-22T01:54:37;20.80;70.20
66825;DHT22;53726;54.322;10.134;2023-11-22T01:57:11;20.80;70.10
66825;DHT22;53726;54.322;10.134;2023-11-22T01:59:37;20.80;70.20
66825;DHT22;53726;54.322;10.134;2023-11-22T02:02:04;20.80;70.20
66825;DHT22;53726;54.322;10.134;2023-11-22T02:04:30;20.80;70.10
66825;DHT22;53726;54.322;10.134;2023-11-22T02:06:57;20.80;70.30
66825;DHT22;53726;54.322;10.134;2023-11-22T02:09:24;20.80;70.30
66825;DHT22;53726;54.322;10.134;2023-11-22T02:11:51;20.80;70.20
66825;DHT22;53726;54.322;10.134;2023-11-22T02:14:19;20.80;70.30
66825;DHT22;53726;54.322;10.134;2023-11-22T02:16:45;20.80;70.20
66825;DHT22;53726;54.322;10.134;2023-11-22T02:19:14;20.80;70.30
66825;DHT22;53726;54.322;10.134;2023-11-22T02:21:41;20.70;70.20
66825;DHT22;53726;54.322;10.134;2023-11-22T02:24:15;20.80;70.20
66825;DHT22;53726;54.322;10.134;2023-11-22T02:26:43;20.80;70.20
66825;DHT22;53726;54.322;10.134;2023-11-22T02:29:15;20.80;70.10
66825;DHT22;53726;54.322;10.134;2023-11-22T02:31:41;20.80;70.20
66825;DHT22;53726;54.322;10.134;2023-11-22T02:34:17;20.80;70.20
66825;DHT22;53726;54.322;10.134;2023-11-22T02:36:45;20.80;70.20
66825;DHT22;53726;54.322;10.134;2023-11-22T02:39:11;20.80;70.20
66825;DHT22;53726;54.322;10.134;2023-11-22T02:41:40;20.80;70.30
66825;DHT22;53726;54.322;10.134;2023-11-22T02:44:07;20.80;70.20
66825;DHT22;53726;54.322;10.134;2023-11-22T02:46:33;20.80;70.20
66825;DHT22;53726;54.322;10.134;2023-11-22T02:48:59;20.80;70.30
66825;DHT22;53726;54.322;10.134;2023-11-22T02:51:25;20.80;70.30
66825;DHT22;53726;54.322;10.134;2023-11-22T02:53:53;20.80;70.20
66825;DHT22;53726;54.322;10.134;2023-11-22T02:56:19;20.80;70.20
66825;DHT22;53726;54.322;10.134;2023-11-22T02:58:47;20.80;70.10
66825;DHT22;53726;54.322;10.134;2023-11-22T03:01:14;20.80;70.20
66825;DHT22;53726;54.322;10.134;2023-11-22T03:03:48;20.80;70.10
66825;DHT22;53726;54.322;10.134;2023-11-22T03:06:16;20.80;70.10
66825;DHT22;53726;54.322;10.134;2023-11-22T03:08:41;20.80;70.10
66825;DHT22;53726;54.322;10.134;2023-11-22T03:11:09;20.80;70.00
66825;DHT22;53726;54.322;10.134;2023-11-22T03:13:43;20.80;70.10
66825;DHT22;53726;54.322;10.134;2023-11-22T03:16:09;20.80;70.10
66825;DHT22;53726;54.322;10.134;2023-11-22T03:18:37;20.80;70.00
66825;DHT22;53726;54.322;10.134;2023-11-22T03:21:05;20.80;70.00
66825;DHT22;53726;54.322;10.134;2023-11-22T03:23:38;20.80;70.10
66825;DHT22;53726;54.322;10.134;2023-11-22T03:26:06;20.80;69.90
66825;DHT22;53726;54.322;10.134;2023-11-22T03:28:32;20.80;69.90
66825;DHT22;53726;54.322;10.134;2023-11-22T03:31:00;20.80;70.00
66825;DHT22;53726;54.322;10.134;2023-11-22T03:33:27;20.80;70.00
66825;DHT22;53726;54.322;10.134;2023-11-22T03:35:54;20.80;70.00
66825;DHT22;53726;54.322;10.134;2023-11-22T03:38:22;20.80;70.10
66825;DHT22;53726;54.322;10.134;2023-11-22T03:40:50;20.80;70.10
66825;DHT22;53726;54.322;10.134;2023-11-22T03:43:17;20.80;70.00
66825;DHT22;53726;54.322;10.134;2023-11-22T03:45:42;20.80;70.00
66825;DHT22;53726;54.322;10.134;2023-11-22T03:48:09;20.80;69.90
66825;DHT22;53726;54.322;10.134;2023-11-22T03:50:34;20.80;70.00
66825;DHT22;53726;54.322;10.134;2023-11-22T03:53:01;20.80;70.20
66825;DHT22;53726;54.322;10.134;2023-11-22T03:55:28;20.80;69.90
66825;DHT22;53726;54.322;10.134;2023-11-22T03:57:55;20.80;69.90
66825;DHT22;53726;54.322;10.134;2023-11-22T04:00:23;20.80;70.00
66825;DHT22;53726;54.322;10.134;2023-11-22T04:02:51;20.80;70.00
66825;DHT22;53726;54.322;10.134;2023-11-22T04:05:19;20.80;70.10
66825;DHT22;53726;54.322;10.134;2023-11-22T04:07:46;20.80;70.40
66825;DHT22;53726;54.322;10.134;2023-11-22T04:10:12;20.80;67.20
66825;DHT22;53726;54.322;10.134;2023-11-22T04:12:39;20.80;64.30
66825;DHT22;53726;54.322;10.134;2023-11-22T04:15:05;20.80;63.80
66825;DHT22;53726;54.322;10.134;2023-11-22T04:17:34;20.80;63.70
66825;DHT22;53726;54.322;10.134;2023-11-22T04:20:00;20.70;63.80
66825;DHT22;53726;54.322;10.134;2023-11-22T04:22:27;20.70;63.90
66825;DHT22;53726;54.322;10.134;2023-11-22T04:24:55;20.70;64.10
66825;DHT22;53726;54.322;10.134;2023-11-22T04:27:22;20.70;64.20
66825;DHT22;53726;54.322;10.134;2023-11-22T04:29:49;20.70;64.20
66825;DHT22;53726;54.322;10.134;2023-11-22T04:32:15;20.60;64.30
66825;DHT22;53726;54.322;10.134;2023-11-22T04:34:42;20.60;64.30
66825;DHT22;53726;54.322;10.134;2023-11-22T04:37:08;20.60;64.40
66825;DHT22;53726;54.322;10.134;2023-11-22T04:39:35;20.60;64.30
66825;DHT22;53726;54.322;10.134;2023-11-22T04:42:08;20.60;64.40
66825;DHT22;53726;54.322;10.134;2023-11-22T04:44:34;20.60;64.40
66825;DHT22;53726;54.322;10.134;2023-11-22T04:47:01;20.60;64.50
66825;DHT22;53726;54.322;10.134;2023-11-22T04:49:28;20.50;64.40
66825;DHT22;53726;54.322;10.134;2023-11-22T04:51:55;20.50;64.40
66825;DHT22;53726;54.322;10.134;2023-11-22T04:54:20;20.50;64.40
66825;DHT22;53726;54.322;10.134;2023-11-22T04:56:46;20.50;64.40
66825;DHT22;53726;54.322;10.134;2023-11-22T04:59:12;20.50;64.50
66825;DHT22;53726;54.322;10.134;2023-11-22T05:01:39;20.50;64.50
66825;DHT22;53726;54.322;10.134;2023-11-22T05:04:04;20.50;64.50
66825;DHT22;53726;54.322;10.134;2023-11-22T05:06:30;20.50;64.50
66825;DHT22;53726;54.322;10.134;2023-11-22T05:08:59;20.40;64.50
66825;DHT22;53726;54.322;10.134;2023-11-22T05:11:25;20.50;64.50
66825;DHT22;53726;54.322;10.134;2023-11-22T05:13:52;20.50;64.50
66825;DHT22;53726;54.322;10.134;2023-11-22T05:16:17;20.50;64.50
66825;DHT22;53726;54.322;10.134;2023-11-22T05:18:43;20.40;64.40
66825;DHT22;53726;54.322;10.134;2023-11-22T05:21:12;20.50;64.50
66825;DHT22;53726;54.322;10.134;2023-11-22T05:23:39;20.40;64.40
66825;DHT22;53726;54.322;10.134;2023-11-22T05:26:06;20.40;64.40
66825;DHT22;53726;54.322;10.134;2023-11-22T05:28:40;20.50;64.50
66825;DHT22;53726;54.322;10.134;2023-11-22T05:31:09;20.40;64.40
66825;DHT22;53726;54.322;10.134;2023-11-22T05:33:34;20.50;64.50
66825;DHT22;53726;54.322;10.134;2023-11-22T05:36:00;20.40;65.70
66825;DHT22;53726;54.322;10.134;2023-11-22T05:38:28;20.40;66.80
66825;DHT22;53726;54.322;10.134;2023-11-22T05:40:55;20.50;67.10
66825;DHT22;53726;54.322;10.134;2023-11-22T05:43:23;20.50;67.20
66825;DHT22;53726;54.322;10.134;2023-11-22T05:45:56;20.50;67.30
66825;DHT22;53726;54.322;10.134;2023-11-22T05:48:21;20.50;67.20
66825;DHT22;53726;54.322;10.134;2023-11-22T05:50:52;20.50;67.40
66825;DHT22;53726;54.322;10.134;2023-11-22T05:53:19;20.50;67.60
66825;DHT22;53726;54.322;10.134;2023-11-22T05:55:49;20.50;67.70
66825;DHT22;53726;54.322;10.134;2023-11-22T05:58:15;20.50;66.90
66825;DHT22;53726;54.322;10.134;2023-11-22T06:00:46;20.60;67.70
66825;DHT22;53726;54.322;10.134;2023-11-22T06:03:13;20.50;68.10
66825;DHT22;53726;54.322;10.134;2023-11-22T06:05:39;20.60;68.30
66825;DHT22;53726;54.322;10.134;2023-11-22T06:08:05;20.50;68.40
66825;DHT22;53726;54.322;10.134;2023-11-22T06:10:32;20.50;68.40
66825;DHT22;53726;54.322;10.134;2023-11-22T06:12:58;20.60;68.60
66825;DHT22;53726;54.322;10.134;2023-11-22T06:15:24;20.50;68.40
66825;DHT22;53726;54.322;10.134;2023-11-22T06:17:50;20.50;68.40
66825;DHT22;53726;54.322;10.134;2023-11-22T06:20:16;20.50;68.30
66825;DHT22;53726;54.322;10.134;2023-11-22T06:22:46;20.50;68.00
66825;DHT22;53726;54.322;10.134;2023-11-22T06:25:12;20.50;66.50
66825;DHT22;53726;54.322;10.134;2023-11-22T06:27:39;20.60;65.00
66825;DHT22;53726;54.322;10.134;2023-11-22T06:30:08;20.60;64.50
66825;DHT22;53726;54.322;10.134;2023-11-22T06:32:43;20.50;65.90
66825;DHT22;53726;54.322;10.134;2023-11-22T06:35:10;20.50;66.60
66825;DHT22;53726;54.322;10.134;2023-11-22T06:37:40;20.60;66.90
66825;DHT22;53726;54.322;10.134;2023-11-22T06:40:07;20.60;66.10
66825;DHT22;53726;54.322;10.134;2023-11-22T06:42:33;20.10;47.20
66825;DHT22;53726;54.322;10.134;2023-11-22T06:44:59;19.50;46.50
66825;DHT22;53726;54.322;10.134;2023-11-22T06:47:26;19.40;47.40
66825;DHT22;53726;54.322;10.134;2023-11-22T06:49:52;19.10;45.80
66825;DHT22;53726;54.322;10.134;2023-11-22T06:52:18;18.70;47.50
66825;DHT22;53726;54.322;10.134;2023-11-22T06:54:44;18.70;50.10
66825;DHT22;53726;54.322;10.134;2023-11-22T06:57:09;18.70;55.00
66825;DHT22;53726;54.322;10.134;2023-11-22T06:59:35;18.70;57.50
66825;DHT22;53726;54.322;10.134;2023-11-22T07:02:01;18.80;58.50
66825;DHT22;53726;54.322;10.134;2023-11-22T07:04:27;18.90;60.00
66825;DHT22;53726;54.322;10.134;2023-11-22T07:06:54;18.90;59.00
66825;DHT22;53726;54.322;10.134;2023-11-22T07:09:32;19.00;59.30
66825;DHT22;53726;54.322;10.134;2023-11-22T07:11:59;19.00;59.50
66825;DHT22;53726;54.322;10.134;2023-11-22T07:14:26;19.10;59.70
66825;DHT22;53726;54.322;10.134;2023-11-22T07:16:52;19.10;60.30
66825;DHT22;53726;54.322;10.134;2023-11-22T07:19:20;19.20;61.00
66825;DHT22;53726;54.322;10.134;2023-11-22T07:21:45;19.20;61.30
66825;DHT22;53726;54.322;10.134;2023-11-22T07:24:13;19.20;61.40
66825;DHT22;53726;54.322;10.134;2023-11-22T07:26:41;19.30;61.90
66825;DHT22;53726;54.322;10.134;2023-11-22T07:29:07;19.30;61.90
66825;DHT22;53726;54.322;10.134;2023-11-22T07:31:33;19.40;62.00
66825;DHT22;53726;54.322;10.134;2023-11-22T07:33:59;19.40;62.00
66825;DHT22;53726;54.322;10.134;2023-11-22T07:36:27;19.40;62.10
66825;DHT22;53726;54.322;10.134;2023-11-22T07:38:54;19.40;52.40
66825;DHT22;53726;54.322;10.134;2023-11-22T07:41:19;19.10;47.60
66825;DHT22;53726;54.322;10.134;2023-11-22T07:43:49;18.90;47.50
66825;DHT22;53726;54.322;10.134;2023-11-22T07:46:15;18.90;51.00
66825;DHT22;53726;54.322;10.134;2023-11-22T07:48:42;18.90;55.60
66825;DHT22;53726;54.322;10.134;2023-11-22T07:51:12;19.00;56.70
66825;DHT22;53726;54.322;10.134;2023-11-22T07:53:38;19.00;57.20
66825;DHT22;53726;54.322;10.134;2023-11-22T07:56:05;19.10;57.70
66825;DHT22;53726;54.322;10.134;2023-11-22T07:58:30;19.20;58.10
66825;DHT22;53726;54.322;10.134;2023-11-22T08:00:59;19.20;58.40
66825;DHT22;53726;54.322;10.134;2023-11-22T08:03:25;19.30;58.60
66825;DHT22;53726;54.322;10.134;2023-11-22T08:05:51;19.40;58.80
66825;DHT22;53726;54.322;10.134;2023-11-22T08:08:21;19.50;59.00
66825;DHT22;53726;54.322;10.134;2023-11-22T08:10:47;19.60;59.20
66825;DHT22;53726;54.322;10.134;2023-11-22T08:13:14;19.60;59.30
66825;DHT22;53726;54.322;10.134;2023-11-22T08:15:40;19.70;59.40
66825;DHT22;53726;54.322;10.134;2023-11-22T08:18:06;19.70;59.40
66825;DHT22;53726;54.322;10.134;2023-11-22T08:20:31;19.80;59.50
66825;DHT22;53726;54.322;10.134;2023-11-22T08:22:57;19.90;59.60
66825;DHT22;53726;54.322;10.134;2023-11-22T08:25:22;20.00;59.70
66825;DHT22;53726;54.322;10.134;2023-11-22T08:27:48;20.00;59.70
66825;DHT22;53726;54.322;10.134;2023-11-22T08:30:13;20.10;59.80
66825;DHT22;53726;54.322;10.134;2023-11-22T08:32:47;20.10;59.80
66825;DHT22;53726;54.322;10.134;2023-11-22T08:35:18;20.20;59.80
66825;DHT22;53726;54.322;10.134;2023-11-22T08:37:45;20.20;59.90
66825;DHT22;53726;54.322;10.134;2023-11-22T08:40:12;20.20;59.90
66825;DHT22;53726;54.322;10.134;2023-11-22T08:42:39;20.30;59.90
66825;DHT22;53726;54.322;10.134;2023-11-22T08:45:06;20.30;60.00
66825;DHT22;53726;54.322;10.134;2023-11-22T08:47:33;20.30;59.90
66825;DHT22;53726;54.322;10.134;2023-11-22T08:50:02;20.40;59.90
66825;DHT22;53726;54.322;10.134;2023-11-22T08:52:29;20.40;60.00
66825;DHT22;53726;54.322;10.134;2023-11-22T08:54:56;20.40;60.00
66825;DHT22;53726;54.322;10.134;2023-11-22T08:57:22;20.40;60.00
66825;DHT22;53726;54.322;10.134;2023-11-22T08:59:47;20.40;60.00
66825;DHT22;53726;54.322;10.134;2023-11-22T09:02:13;20.40;59.70
66825;DHT22;53726;54.322;10.134;2023-11-22T09:04:40;20.40;59.30
66825;DHT22;53726;54.322;10.134;2023-11-22T09:07:07;20.40;58.80
66825;DHT22;53726;54.322;10.134;2023-11-22T09:09:32;20.40;58.40
66825;DHT22;53726;54.322;10.134;2023-11-22T09:12:00;20.40;58.80
66825;DHT22;53726;54.322;10.134;2023-11-22T09:14:26;20.30;58.90
66825;DHT22;53726;54.322;10.134;2023-11-22T09:16:52;20.30;59.00
66825;DHT22;53726;54.322;10.134;2023-11-22T09:19:21;20.30;59.20
66825;DHT22;53726;54.322;10.134;2023-11-22T09:21:46;20.30;59.80
66825;DHT22;53726;54.322;10.134;2023-11-22T09:24:14;20.30;60.00
66825;DHT22;53726;54.322;10.134;2023-11-22T09:26:43;20.30;60.20
66825;DHT22;53726;54.322;10.134;2023-11-22T09:29:12;20.30;60.40
66825;DHT22;53726;54.322;10.134;2023-11-22T09:31:40;20.30;60.60
66825;DHT22;53726;54.322;10.134;2023-11-22T09:34:08;20.30;60.80
66825;DHT22;53726;54.322;10.134;2023-11-22T09:36:33;20.40;61.00
66825;DHT22;53726;54.322;10.134;2023-11-22T09:38:59;20.40;61.10
66825;DHT22;53726;54.322;10.134;2023-11-22T09:41:25;20.40;61.20
66825;DHT22;53726;54.322;10.134;2023-11-22T09:43:55;20.40;61.30
66825;DHT22;53726;54.322;10.134;2023-11-22T09:46:22;20.50;61.40
66825;DHT22;53726;54.322;10.134;2023-11-22T09:48:49;20.50;61.40
66825;DHT22;53726;54.322;10.134;2023-11-22T09:56:19;20.50;61.50
66825;DHT22;53726;54.322;10.134;2023-11-22T09:58:45;20.50;61.60
66825;DHT22;53726;54.322;10.134;2023-11-22T10:01:10;20.50;61.50
66825;DHT22;53726;54.322;10.134;2023-11-22T10:03:36;20.50;61.50
66825;DHT22;53726;54.322;10.134;2023-11-22T10:06:02;20.50;61.50
66825;DHT22;53726;54.322;10.134;2023-11-22T10:08:29;20.50;61.50
66825;DHT22;53726;54.322;10.134;2023-11-22T10:10:56;20.50;61.50
66825;DHT22;53726;54.322;10.134;2023-11-22T10:13:23;20.50;61.60
66825;DHT22;53726;54.322;10.134;2023-11-22T10:15:50;20.50;60.70
66825;DHT22;53726;54.322;10.134;2023-11-22T10:18:16;20.50;60.50
66825;DHT22;53726;54.322;10.134;2023-11-22T10:20:43;20.50;61.10
66825;DHT22;53726;54.322;10.134;2023-11-22T10:23:12;20.50;61.20
66825;DHT22;53726;54.322;10.134;2023-11-22T10:25:46;20.50;61.30
66825;DHT22;53726;54.322;10.134;2023-11-22T10:28:21;20.50;61.30
66825;DHT22;53726;54.322;10.134;2023-11-22T10:30:47;20.50;61.40
66825;DHT22;53726;54.322;10.134;2023-11-22T10:33:20;20.50;61.50
66825;DHT22;53726;54.322;10.134;2023-11-22T10:35:49;20.50;61.50
66825;DHT22;53726;54.322;10.134;2023-11-22T10:38:30;20.50;62.70
66825;DHT22;53726;54.322;10.134;2023-11-22T10:40:57;20.50;61.80
66825;DHT22;53726;54.322;10.134;2023-11-22T10:43:25;20.50;61.80
66825;DHT22;53726;54.322;10.134;2023-11-22T10:45:53;20.40;61.90
66825;DHT22;53726;54.322;10.134;2023-11-22T10:48:28;20.40;61.90
66825;DHT22;53726;54.322;10.134;2023-11-22T10:50:56;20.40;61.90
66825;DHT22;53726;54.322;10.134;2023-11-22T10:53:26;20.40;62.00
66825;DHT22;53726;54.322;10.134;2023-11-22T10:55:57;20.40;62.00
66825;DHT22;53726;54.322;10.134;2023-11-22T10:58:25;20.50;62.10
66825;DHT22;53726;54.322;10.134;2023-11-22T11:00:54;20.40;62.00
66825;DHT22;53726;54.322;10.134;2023-11-22T11:03:22;20.50;61.30
66825;DHT22;53726;54.322;10.134;2023-11-22T11:05:52;20.40;60.10
66825;DHT22;53726;54.322;10.134;2023-11-22T11:08:20;20.40;59.60
66825;DHT22;53726;54.322;10.134;2023-11-22T11:10:47;20.40;59.70
66825;DHT22;53726;54.322;10.134;2023-11-22T11:13:15;20.40;60.80
66825;DHT22;53726;54.322;10.134;2023-11-22T11:15:41;20.40;60.90
66825;DHT22;53726;54.322;10.134;2023-11-22T11:18:14;20.40;61.10
66825;DHT22;53726;54.322;10.134;2023-11-22T11:20:52;20.40;61.40
66825;DHT22;53726;54.322;10.134;2023-11-22T11:23:22;20.40;60.20
66825;DHT22;53726;54.322;10.134;2023-11-22T11:25:57;20.40;61.20
66825;DHT22;53726;54.322;10.134;2023-11-22T11:28:23;20.50;61.40
66825;DHT22;53726;54.322;10.134;2023-11-22T11:30:52;20.50;61.50
66825;DHT22;53726;54.322;10.134;2023-11-22T11:33:19;20.50;61.50
66825;DHT22;53726;54.322;10.134;2023-11-22T11:35:52;20.50;61.30
66825;DHT22;53726;54.322;10.134;2023-11-22T11:38:19;20.50;61.50
66825;DHT22;53726;54.322;10.134;2023-11-22T11:40:50;20.50;61.50
66825;DHT22;53726;54.322;10.134;2023-11-22T11:43:30;20.50;61.60
66825;DHT22;53726;54.322;10.134;2023-11-22T11:46:01;20.50;61.60
66825;DHT22;53726;54.322;10.134;2023-11-22T11:48:28;20.60;61.70
66825;DHT22;53726;54.322;10.134;2023-11-22T11:51:08;20.60;61.70
66825;DHT22;53726;54.322;10.134;2023-11-22T11:53:36;20.60;61.80
66825;DHT22;53726;54.322;10.134;2023-11-22T11:56:28;20.60;61.80
66825;DHT22;53726;54.322;10.134;2023-11-22T11:58:56;20.60;61.80
66825;DHT22;53726;54.322;10.134;2023-11-22T12:01:30;20.60;61.90
66825;DHT22;53726;54.322;10.134;2023-11-22T12:04:02;20.60;61.90
66825;DHT22;53726;54.322;10.134;2023-11-22T12:06:30;20.60;61.80
66825;DHT22;53726;54.322;10.134;2023-11-22T12:09:06;20.70;61.80
66825;DHT22;53726;54.322;10.134;2023-11-22T12:11:33;20.70;61.90
66825;DHT22;53726;54.322;10.134;2023-11-22T12:14:00;20.60;61.80
66825;DHT22;53726;54.322;10.134;2023-11-22T12:16:29;20.60;61.90
66825;DHT22;53726;54.322;10.134;2023-11-22T12:21:27;20.60;61.90
66825;DHT22;53726;54.322;10.134;2023-11-22T12:24:13;20.60;61.90
66825;DHT22;53726;54.322;10.134;2023-11-22T12:27:00;20.60;62.00
66825;DHT22;53726;54.322;10.134;2023-11-22T12:29:27;20.60;62.00
66825;DHT22;53726;54.322;10.134;2023-11-22T12:31:55;20.60;62.10
66825;DHT22;53726;54.322;10.134;2023-11-22T12:34:38;20.60;62.10
66825;DHT22;53726;54.322;10.134;2023-11-22T12:37:04;20.60;62.10
66825;DHT22;53726;54.322;10.134;2023-11-22T12:39:36;20.60;62.10
66825;DHT22;53726;54.322;10.134;2023-11-22T12:42:08;20.60;62.20
66825;DHT22;53726;54.322;10.134;2023-11-22T12:44:50;20.60;62.30
66825;DHT22;53726;54.322;10.134;2023-11-22T12:47:32;20.60;62.30
66825;DHT22;53726;54.322;10.134;2023-11-22T12:50:02;20.60;62.40
66825;DHT22;53726;54.322;10.134;2023-11-22T12:52:31;20.60;62.50
66825;DHT22;53726;54.322;10.134;2023-11-22T12:55:00;20.60;62.50
66825;DHT22;53726;54.322;10.134;2023-11-22T12:57:35;20.60;62.50
66825;DHT22;53726;54.322;10.134;2023-11-22T13:00:05;20.60;62.50
66825;DHT22;53726;54.322;10.134;2023-11-22T13:02:33;20.60;62.60
66825;DHT22;53726;54.322;10.134;2023-11-22T13:05:01;20.70;62.60
66825;DHT22;53726;54.322;10.134;2023-11-22T13:07:26;20.70;62.60
66825;DHT22;53726;54.322;10.134;2023-11-22T13:09:52;20.70;62.70
66825;DHT22;53726;54.322;10.134;2023-11-22T13:12:20;20.70;62.70
66825;DHT22;53726;54.322;10.134;2023-11-22T13:14:49;20.70;62.20
66825;DHT22;53726;54.322;10.134;2023-11-22T13:17:16;20.80;60.00
66825;DHT22;53726;54.322;10.134;2023-11-22T13:19:46;20.70;59.40
66825;DHT22;53726;54.322;10.134;2023-11-22T13:22:14;20.70;59.20
66825;DHT22;53726;54.322;10.134;2023-11-22T13:24:41;20.70;59.10
66825;DHT22;53726;54.322;10.134;2023-11-22T13:27:09;20.70;59.10
66825;DHT22;53726;54.322;10.134;2023-11-22T13:29:36;20.70;59.00
66825;DHT22;53726;54.322;10.134;2023-11-22T13:32:03;20.60;59.10
66825;DHT22;53726;54.322;10.134;2023-11-22T13:34:30;20.60;59.00
66825;DHT22;53726;54.322;10.134;2023-11-22T13:36:56;20.60;59.00
66825;DHT22;53726;54.322;10.134;2023-11-22T13:39:23;20.60;59.00
66825;DHT22;53726;54.322;10.134;2023-11-22T13:41:48;20.60;60.00
66825;DHT22;53726;54.322;10.134;2023-11-22T13:44:15;20.60;59.00
66825;DHT22;53726;54.322;10.134;2023-11-22T13:46:44;20.60;60.10
66825;DHT22;53726;54.322;10.134;2023-11-22T13:49:10;20.50;59.10
66825;DHT22;53726;54.322;10.134;2023-11-22T13:51:37;20.50;59.20
66825;DHT22;53726;54.322;10.134;2023-11-22T13:54:03;20.50;59.30
66825;DHT22;53726;54.322;10.134;2023-11-22T13:56:29;20.50;59.30
66825;DHT22;53726;54.322;10.134;2023-11-22T13:58:55;20.50;59.40
66825;DHT22;53726;54.322;10.134;2023-11-22T14:01:23;20.50;59.40
66825;DHT22;53726;54.322;10.134;2023-11-22T14:03:51;20.50;59.40
66825;DHT22;53726;54.322;10.134;2023-11-22T14:06:18;20.50;59.40
66825;DHT22;53726;54.322;10.134;2023-11-22T14:08:44;20.50;59.40
66825;DHT22;53726;54.322;10.134;2023-11-22T14:11:10;20.50;59.40
66825;DHT22;53726;54.322;10.134;2023-11-22T14:13:37;20.50;59.40
66825;DHT22;53726;54.322;10.134;2023-11-22T14:16:03;20.50;59.40
66825;DHT22;53726;54.322;10.134;2023-11-22T14:18:30;20.50;59.40
66825;DHT22;53726;54.322;10.134;2023-11-22T14:20:56;20.50;59.40
66825;DHT22;53726;54.322;10.134;2023-11-22T14:23:22;20.50;59.30
66825;DHT22;53726;54.322;10.134;2023-11-22T14:25:48;20.50;59.20
66825;DHT22;53726;54.322;10.134;2023-11-22T14:28:17;20.50;59.30
66825;DHT22;53726;54.322;10.134;2023-11-22T14:30:45;20.50;59.10
66825;DHT22;53726;54.322;10.134;2023-11-22T14:33:11;20.50;59.10
66825;DHT22;53726;54.322;10.134;2023-11-22T14:35:38;20.50;59.00
66825;DHT22;53726;54.322;10.134;2023-11-22T14:38:05;20.50;59.00
66825;DHT22;53726;54.322;10.134;2023-11-22T14:40:32;20.50;59.10
66825;DHT22;53726;54.322;10.134;2023-11-22T14:42:58;20.40;59.30
66825;DHT22;53726;54.322;10.134;2023-11-22T14:45:25;20.50;60.80
66825;DHT22;53726;54.322;10.134;2023-11-22T14:47:56;20.50;61.30
66825;DHT22;53726;54.322;10.134;2023-11-22T14:50:48;20.50;60.40
66825;DHT22;53726;54.322;10.134;2023-11-22T14:53:20;20.50;61.30
66825;DHT22;53726;54.322;10.134;2023-11-22T14:55:47;20.40;61.60
66825;DHT22;53726;54.322;10.134;2023-11-22T14:58:12;20.50;61.80
66825;DHT22;53726;54.322;10.134;2023-11-22T15:00:43;20.50;61.50
66825;DHT22;53726;54.322;10.134;2023-11-22T15:03:09;20.50;59.60
66825;DHT22;53726;54.322;10.134;2023-11-22T15:05:37;20.50;59.10
66825;DHT22;53726;54.322;10.134;2023-11-22T15:08:04;20.50;58.90
66825;DHT22;53726;54.322;10.134;2023-11-22T15:10:30;20.50;58.80
66825;DHT22;53726;54.322;10.134;2023-11-22T15:12:57;20.50;58.80
66825;DHT22;53726;54.322;10.134;2023-11-22T15:15:24;20.50;58.80
66825;DHT22;53726;54.322;10.134;2023-11-22T15:17:54;20.50;58.70
66825;DHT22;53726;54.322;10.134;2023-11-22T15:20:34;20.50;58.80
66825;DHT22;53726;54.322;10.134;2023-11-22T15:23:07;20.50;59.00
66825;DHT22;53726;54.322;10.134;2023-11-22T15:25:34;20.50;59.00
66825;DHT22;53726;54.322;10.134;2023-11-22T15:28:00;20.50;59.10